sensor_id;sensor_type;location;lat;lon;timestamp;P1;durP1;ratioP1;P2;durP2;ratioP2
39518;SDS011;25200;53.394;10.414;2023-07-30T00:01:58;5.20;;;2.95;;
39518;SDS011;25200;53.394;10.414;2023-07-30T00:04:24;6.45;;;3.17;;
39518;SDS011;25200;53.394;10.414;2023-07-30T00:06:50;6.53;;;2.97;;
39518;SDS011;25200;53.394;10.414;2023-07-30T00:09:15;5.75;;;3.20;;
39518;SDS011;25200;53.394;10.414;2023-07-30T00:11:41;6.47;;;2.90;;
39518;SDS011;25200;53.394;10.414;2023-07-30T00:14:07;5.57;;;2.65;;
39518;SDS011;25200;53.394;10.414;2023-07-30T00:16:33;5.00;;;2.45;;
39518;SDS011;25200;53.394;10.414;2023-07-30T00:18:58;8.25;;;3.28;;
39518;SDS011;25200;53.394;10.414;2023-07-30T00:21:24;5.85;;;2.80;;
39518;SDS011;25200;53.394;10.414;2023-07-30T00:23:49;5.38;;;2.97;;
39518;SDS011;25200;53.394;10.414;2023-07-30T00:26:15;5.53;;;3.38;;
39518;SDS011;25200;53.394;10.414;2023-07-30T00:28:41;6.43;;;2.53;;
39518;SDS011;25200;53.394;10.414;2023-07-30T00:31:06;6.63;;;3.70;;
39518;SDS011;25200;53.394;10.414;2023-07-30T00:33:32;7.70;;;3.65;;
39518;SDS011;25200;53.394;10.414;2023-07-30T00:35:57;4.95;;;3.13;;
39518;SDS011;25200;53.394;10.414;2023-07-30T00:38:23;7.60;;;3.40;;
39518;SDS011;25200;53.394;10.414;2023-07-30T00:40:49;7.03;;;3.67;;
39518;SDS011;25200;53.394;10.414;2023-07-30T00:43:14;8.65;;;3.95;;
39518;SDS011;25200;53.394;10.414;2023-07-30T00:45:41;7.28;;;3.75;;
39518;SDS011;25200;53.394;10.414;2023-07-30T00:48:09;6.63;;;3.33;;
39518;SDS011;25200;53.394;10.414;2023-07-30T00:50:35;8.73;;;3.35;;
39518;SDS011;25200;53.394;10.414;2023-07-30T00:53:02;9.55;;;3.33;;
39518;SDS011;25200;53.394;10.414;2023-07-30T00:55:27;7.10;;;3.58;;
39518;SDS011;25200;53.394;10.414;2023-07-30T00:57:53;9.50;;;3.50;;
39518;SDS011;25200;53.394;10.414;2023-07-30T01:00:19;9.10;;;3.70;;
39518;SDS011;25200;53.394;10.414;2023-07-30T01:02:45;7.18;;;3.65;;
39518;SDS011;25200;53.394;10.414;2023-07-30T01:05:10;6.03;;;3.25;;
39518;SDS011;25200;53.394;10.414;2023-07-30T01:07:36;8.60;;;3.60;;
39518;SDS011;25200;53.394;10.414;2023-07-30T01:10:02;5.30;;;3.25;;
39518;SDS011;25200;53.394;10.414;2023-07-30T01:12:28;6.82;;;3.30;;
39518;SDS011;25200;53.394;10.414;2023-07-30T01:14:56;5.15;;;3.28;;
39518;SDS011;25200;53.394;10.414;2023-07-30T01:17:23;6.82;;;3.75;;
39518;SDS011;25200;53.394;10.414;2023-07-30T01:19:49;5.57;;;3.20;;
39518;SDS011;25200;53.394;10.414;2023-07-30T01:22:19;6.85;;;3.88;;
39518;SDS011;25200;53.394;10.414;2023-07-30T01:24:46;6.68;;;3.67;;
39518;SDS011;25200;53.394;10.414;2023-07-30T01:27:14;6.10;;;2.92;;
39518;SDS011;25200;53.394;10.414;2023-07-30T01:29:55;8.48;;;3.83;;
39518;SDS011;25200;53.394;10.414;2023-07-30T01:32:25;9.05;;;3.50;;
39518;SDS011;25200;53.394;10.414;2023-07-30T01:34:52;6.35;;;3.72;;
39518;SDS011;25200;53.394;10.414;2023-07-30T01:37:19;10.05;;;4.10;;
39518;SDS011;25200;53.394;10.414;2023-07-30T01:39:46;5.22;;;2.90;;
39518;SDS011;25200;53.394;10.414;2023-07-30T01:42:13;7.30;;;3.72;;
39518;SDS011;25200;53.394;10.414;2023-07-30T01:44:40;5.38;;;3.42;;
39518;SDS011;25200;53.394;10.414;2023-07-30T01:47:05;10.93;;;3.65;;
39518;SDS011;25200;53.394;10.414;2023-07-30T01:49:31;5.45;;;3.33;;
39518;SDS011;25200;53.394;10.414;2023-07-30T01:51:56;7.05;;;3.90;;
39518;SDS011;25200;53.394;10.414;2023-07-30T01:54:22;6.43;;;4.05;;
39518;SDS011;25200;53.394;10.414;2023-07-30T01:56:48;6.00;;;3.00;;
39518;SDS011;25200;53.394;10.414;2023-07-30T01:59:13;8.80;;;3.97;;
39518;SDS011;25200;53.394;10.414;2023-07-30T02:01:39;5.72;;;3.70;;
39518;SDS011;25200;53.394;10.414;2023-07-30T02:04:06;7.93;;;3.60;;
39518;SDS011;25200;53.394;10.414;2023-07-30T02:06:32;5.63;;;3.00;;
39518;SDS011;25200;53.394;10.414;2023-07-30T02:08:57;6.28;;;3.58;;
39518;SDS011;25200;53.394;10.414;2023-07-30T02:11:23;9.93;;;3.97;;
39518;SDS011;25200;53.394;10.414;2023-07-30T02:13:49;6.00;;;3.78;;
39518;SDS011;25200;53.394;10.414;2023-07-30T02:16:14;6.95;;;3.70;;
39518;SDS011;25200;53.394;10.414;2023-07-30T02:18:40;5.45;;;3.75;;
39518;SDS011;25200;53.394;10.414;2023-07-30T02:21:06;6.85;;;3.13;;
39518;SDS011;25200;53.394;10.414;2023-07-30T02:23:31;8.23;;;3.60;;
39518;SDS011;25200;53.394;10.414;2023-07-30T02:25:57;6.55;;;3.70;;
39518;SDS011;25200;53.394;10.414;2023-07-30T02:28:22;8.48;;;3.78;;
39518;SDS011;25200;53.394;10.414;2023-07-30T02:30:48;7.20;;;3.92;;
39518;SDS011;25200;53.394;10.414;2023-07-30T02:33:14;5.47;;;3.30;;
39518;SDS011;25200;53.394;10.414;2023-07-30T02:35:39;6.55;;;3.33;;
39518;SDS011;25200;53.394;10.414;2023-07-30T02:38:05;6.88;;;3.30;;
39518;SDS011;25200;53.394;10.414;2023-07-30T02:40:31;4.65;;;2.60;;
39518;SDS011;25200;53.394;10.414;2023-07-30T02:42:56;6.80;;;3.30;;
39518;SDS011;25200;53.394;10.414;2023-07-30T02:45:22;5.05;;;2.90;;
39518;SDS011;25200;53.394;10.414;2023-07-30T02:47:48;7.60;;;3.50;;
39518;SDS011;25200;53.394;10.414;2023-07-30T02:50:13;8.32;;;3.83;;
39518;SDS011;25200;53.394;10.414;2023-07-30T02:52:39;5.72;;;3.72;;
39518;SDS011;25200;53.394;10.414;2023-07-30T02:55:05;8.55;;;3.83;;
39518;SDS011;25200;53.394;10.414;2023-07-30T02:57:30;5.55;;;2.78;;
39518;SDS011;25200;53.394;10.414;2023-07-30T02:59:56;7.82;;;3.47;;
39518;SDS011;25200;53.394;10.414;2023-07-30T03:02:22;5.68;;;3.17;;
39518;SDS011;25200;53.394;10.414;2023-07-30T03:04:48;6.88;;;3.03;;
39518;SDS011;25200;53.394;10.414;2023-07-30T03:07:13;7.72;;;3.42;;
39518;SDS011;25200;53.394;10.414;2023-07-30T03:09:39;5.85;;;4.15;;
39518;SDS011;25200;53.394;10.414;2023-07-30T03:12:04;8.27;;;4.07;;
39518;SDS011;25200;53.394;10.414;2023-07-30T03:14:30;6.80;;;3.85;;
39518;SDS011;25200;53.394;10.414;2023-07-30T03:16:56;8.05;;;4.10;;
39518;SDS011;25200;53.394;10.414;2023-07-30T03:19:22;8.65;;;3.30;;
39518;SDS011;25200;53.394;10.414;2023-07-30T03:21:47;6.55;;;3.83;;
39518;SDS011;25200;53.394;10.414;2023-07-30T03:24:13;5.68;;;3.10;;
39518;SDS011;25200;53.394;10.414;2023-07-30T03:26:39;9.35;;;3.78;;
39518;SDS011;25200;53.394;10.414;2023-07-30T03:29:04;8.07;;;4.30;;
39518;SDS011;25200;53.394;10.414;2023-07-30T03:31:30;8.32;;;4.10;;
39518;SDS011;25200;53.394;10.414;2023-07-30T03:33:55;5.60;;;3.40;;
39518;SDS011;25200;53.394;10.414;2023-07-30T03:36:21;6.00;;;3.63;;
39518;SDS011;25200;53.394;10.414;2023-07-30T03:38:47;9.30;;;4.07;;
39518;SDS011;25200;53.394;10.414;2023-07-30T03:41:13;6.15;;;3.67;;
39518;SDS011;25200;53.394;10.414;2023-07-30T03:43:38;7.05;;;3.60;;
39518;SDS011;25200;53.394;10.414;2023-07-30T03:46:04;5.80;;;3.65;;
39518;SDS011;25200;53.394;10.414;2023-07-30T03:48:30;5.75;;;3.65;;
39518;SDS011;25200;53.394;10.414;2023-07-30T03:50:55;5.88;;;3.85;;
39518;SDS011;25200;53.394;10.414;2023-07-30T03:53:22;6.85;;;3.88;;
39518;SDS011;25200;53.394;10.414;2023-07-30T03:55:47;10.13;;;4.35;;
39518;SDS011;25200;53.394;10.414;2023-07-30T03:58:13;6.93;;;3.75;;
39518;SDS011;25200;53.394;10.414;2023-07-30T04:00:39;7.53;;;3.72;;
39518;SDS011;25200;53.394;10.414;2023-07-30T04:03:05;9.40;;;4.18;;
39518;SDS011;25200;53.394;10.414;2023-07-30T04:05:31;8.93;;;3.88;;
39518;SDS011;25200;53.394;10.414;2023-07-30T04:07:56;8.07;;;4.10;;
39518;SDS011;25200;53.394;10.414;2023-07-30T04:10:22;7.18;;;4.05;;
39518;SDS011;25200;53.394;10.414;2023-07-30T04:12:48;8.43;;;4.55;;
39518;SDS011;25200;53.394;10.414;2023-07-30T04:15:17;7.18;;;4.20;;
39518;SDS011;25200;53.394;10.414;2023-07-30T04:17:42;7.28;;;4.43;;
39518;SDS011;25200;53.394;10.414;2023-07-30T04:20:08;7.20;;;3.88;;
39518;SDS011;25200;53.394;10.414;2023-07-30T04:22:37;7.35;;;4.20;;
39518;SDS011;25200;53.394;10.414;2023-07-30T04:25:03;9.73;;;4.60;;
39518;SDS011;25200;53.394;10.414;2023-07-30T04:27:29;6.78;;;4.22;;
39518;SDS011;25200;53.394;10.414;2023-07-30T04:29:55;9.50;;;4.60;;
39518;SDS011;25200;53.394;10.414;2023-07-30T04:32:20;6.80;;;4.10;;
39518;SDS011;25200;53.394;10.414;2023-07-30T04:34:46;8.60;;;3.92;;
39518;SDS011;25200;53.394;10.414;2023-07-30T04:37:12;6.65;;;3.97;;
39518;SDS011;25200;53.394;10.414;2023-07-30T04:39:37;7.30;;;3.92;;
39518;SDS011;25200;53.394;10.414;2023-07-30T04:42:03;6.30;;;3.33;;
39518;SDS011;25200;53.394;10.414;2023-07-30T04:44:29;7.10;;;3.50;;
39518;SDS011;25200;53.394;10.414;2023-07-30T04:46:55;11.13;;;3.53;;
39518;SDS011;25200;53.394;10.414;2023-07-30T04:49:20;8.48;;;3.22;;
39518;SDS011;25200;53.394;10.414;2023-07-30T04:51:46;8.43;;;3.70;;
39518;SDS011;25200;53.394;10.414;2023-07-30T04:54:11;8.52;;;3.40;;
39518;SDS011;25200;53.394;10.414;2023-07-30T04:56:37;6.65;;;3.72;;
39518;SDS011;25200;53.394;10.414;2023-07-30T04:59:03;5.93;;;3.22;;
39518;SDS011;25200;53.394;10.414;2023-07-30T05:01:28;6.28;;;4.20;;
39518;SDS011;25200;53.394;10.414;2023-07-30T05:03:54;6.60;;;4.13;;
39518;SDS011;25200;53.394;10.414;2023-07-30T05:06:20;7.78;;;4.75;;
39518;SDS011;25200;53.394;10.414;2023-07-30T05:08:46;8.20;;;4.95;;
39518;SDS011;25200;53.394;10.414;2023-07-30T05:11:11;6.93;;;4.47;;
39518;SDS011;25200;53.394;10.414;2023-07-30T05:13:37;8.65;;;5.00;;
39518;SDS011;25200;53.394;10.414;2023-07-30T05:16:03;8.55;;;5.38;;
39518;SDS011;25200;53.394;10.414;2023-07-30T05:18:29;13.80;;;5.55;;
39518;SDS011;25200;53.394;10.414;2023-07-30T05:20:54;8.52;;;5.05;;
39518;SDS011;25200;53.394;10.414;2023-07-30T05:23:20;7.03;;;4.45;;
39518;SDS011;25200;53.394;10.414;2023-07-30T05:25:47;13.88;;;5.25;;
39518;SDS011;25200;53.394;10.414;2023-07-30T05:28:12;8.25;;;5.05;;
39518;SDS011;25200;53.394;10.414;2023-07-30T05:30:38;12.05;;;5.53;;
39518;SDS011;25200;53.394;10.414;2023-07-30T05:33:04;8.43;;;4.28;;
39518;SDS011;25200;53.394;10.414;2023-07-30T05:35:30;7.60;;;4.60;;
39518;SDS011;25200;53.394;10.414;2023-07-30T05:37:56;9.20;;;4.35;;
39518;SDS011;25200;53.394;10.414;2023-07-30T05:40:21;9.02;;;4.72;;
39518;SDS011;25200;53.394;10.414;2023-07-30T05:42:47;8.82;;;4.78;;
39518;SDS011;25200;53.394;10.414;2023-07-30T05:45:13;7.05;;;4.40;;
39518;SDS011;25200;53.394;10.414;2023-07-30T05:47:38;11.10;;;5.07;;
39518;SDS011;25200;53.394;10.414;2023-07-30T05:50:05;7.97;;;4.63;;
39518;SDS011;25200;53.394;10.414;2023-07-30T05:52:32;9.57;;;5.40;;
39518;SDS011;25200;53.394;10.414;2023-07-30T05:54:57;11.70;;;4.80;;
39518;SDS011;25200;53.394;10.414;2023-07-30T05:57:23;8.50;;;4.72;;
39518;SDS011;25200;53.394;10.414;2023-07-30T05:59:48;12.75;;;4.88;;
39518;SDS011;25200;53.394;10.414;2023-07-30T06:02:14;9.25;;;4.47;;
39518;SDS011;25200;53.394;10.414;2023-07-30T06:04:40;8.38;;;4.70;;
39518;SDS011;25200;53.394;10.414;2023-07-30T06:07:06;10.02;;;5.05;;
39518;SDS011;25200;53.394;10.414;2023-07-30T06:09:31;10.02;;;5.20;;
39518;SDS011;25200;53.394;10.414;2023-07-30T06:11:57;9.05;;;5.20;;
39518;SDS011;25200;53.394;10.414;2023-07-30T06:14:23;10.02;;;4.88;;
39518;SDS011;25200;53.394;10.414;2023-07-30T06:16:50;9.98;;;4.82;;
39518;SDS011;25200;53.394;10.414;2023-07-30T06:19:16;8.77;;;4.82;;
39518;SDS011;25200;53.394;10.414;2023-07-30T06:21:42;12.48;;;5.43;;
39518;SDS011;25200;53.394;10.414;2023-07-30T06:24:07;11.52;;;5.00;;
39518;SDS011;25200;53.394;10.414;2023-07-30T06:26:33;9.80;;;4.57;;
39518;SDS011;25200;53.394;10.414;2023-07-30T06:28:59;11.80;;;5.30;;
39518;SDS011;25200;53.394;10.414;2023-07-30T06:31:24;11.65;;;4.88;;
39518;SDS011;25200;53.394;10.414;2023-07-30T06:33:50;8.50;;;4.90;;
39518;SDS011;25200;53.394;10.414;2023-07-30T06:36:16;9.13;;;4.95;;
39518;SDS011;25200;53.394;10.414;2023-07-30T06:38:41;10.00;;;4.63;;
39518;SDS011;25200;53.394;10.414;2023-07-30T06:41:07;9.07;;;5.05;;
39518;SDS011;25200;53.394;10.414;2023-07-30T06:43:33;9.55;;;4.85;;
39518;SDS011;25200;53.394;10.414;2023-07-30T06:45:59;10.40;;;5.22;;
39518;SDS011;25200;53.394;10.414;2023-07-30T06:48:24;12.07;;;5.32;;
39518;SDS011;25200;53.394;10.414;2023-07-30T06:50:50;12.52;;;5.35;;
39518;SDS011;25200;53.394;10.414;2023-07-30T06:53:18;11.23;;;5.78;;
39518;SDS011;25200;53.394;10.414;2023-07-30T06:55:44;15.68;;;5.30;;
39518;SDS011;25200;53.394;10.414;2023-07-30T06:58:10;9.55;;;5.00;;
39518;SDS011;25200;53.394;10.414;2023-07-30T07:00:36;12.65;;;5.40;;
39518;SDS011;25200;53.394;10.414;2023-07-30T07:03:02;11.75;;;5.00;;
39518;SDS011;25200;53.394;10.414;2023-07-30T07:05:28;15.38;;;4.97;;
39518;SDS011;25200;53.394;10.414;2023-07-30T07:07:54;11.98;;;4.68;;
39518;SDS011;25200;53.394;10.414;2023-07-30T07:10:20;10.98;;;4.82;;
39518;SDS011;25200;53.394;10.414;2023-07-30T07:12:45;10.90;;;5.15;;
39518;SDS011;25200;53.394;10.414;2023-07-30T07:15:12;14.18;;;4.72;;
39518;SDS011;25200;53.394;10.414;2023-07-30T07:17:38;15.40;;;4.70;;
39518;SDS011;25200;53.394;10.414;2023-07-30T07:20:04;10.93;;;4.65;;
39518;SDS011;25200;53.394;10.414;2023-07-30T07:22:31;15.80;;;5.30;;
39518;SDS011;25200;53.394;10.414;2023-07-30T07:24:57;11.23;;;4.20;;
39518;SDS011;25200;53.394;10.414;2023-07-30T07:27:23;13.25;;;4.78;;
39518;SDS011;25200;53.394;10.414;2023-07-30T07:29:49;9.40;;;4.32;;
39518;SDS011;25200;53.394;10.414;2023-07-30T07:32:16;15.82;;;5.07;;
39518;SDS011;25200;53.394;10.414;2023-07-30T07:34:45;15.80;;;4.35;;
39518;SDS011;25200;53.394;10.414;2023-07-30T07:37:11;11.13;;;4.47;;
39518;SDS011;25200;53.394;10.414;2023-07-30T07:39:40;18.95;;;4.80;;
39518;SDS011;25200;53.394;10.414;2023-07-30T07:42:08;16.48;;;4.40;;
39518;SDS011;25200;53.394;10.414;2023-07-30T07:44:34;11.50;;;4.22;;
39518;SDS011;25200;53.394;10.414;2023-07-30T07:47:00;15.38;;;4.10;;
39518;SDS011;25200;53.394;10.414;2023-07-30T07:49:26;9.82;;;3.60;;
39518;SDS011;25200;53.394;10.414;2023-07-30T07:51:52;12.73;;;3.85;;
39518;SDS011;25200;53.394;10.414;2023-07-30T07:54:17;11.25;;;4.47;;
39518;SDS011;25200;53.394;10.414;2023-07-30T07:56:43;18.20;;;4.20;;
39518;SDS011;25200;53.394;10.414;2023-07-30T07:59:08;11.65;;;4.55;;
39518;SDS011;25200;53.394;10.414;2023-07-30T08:01:34;17.55;;;4.28;;
39518;SDS011;25200;53.394;10.414;2023-07-30T08:04:00;14.90;;;3.53;;
39518;SDS011;25200;53.394;10.414;2023-07-30T08:06:25;15.05;;;3.80;;
39518;SDS011;25200;53.394;10.414;2023-07-30T08:08:51;11.60;;;3.30;;
39518;SDS011;25200;53.394;10.414;2023-07-30T08:11:17;13.98;;;3.22;;
39518;SDS011;25200;53.394;10.414;2023-07-30T08:13:42;9.40;;;3.30;;
39518;SDS011;25200;53.394;10.414;2023-07-30T08:16:08;11.73;;;3.22;;
39518;SDS011;25200;53.394;10.414;2023-07-30T08:18:34;12.95;;;3.53;;
39518;SDS011;25200;53.394;10.414;2023-07-30T08:21:00;15.32;;;3.30;;
39518;SDS011;25200;53.394;10.414;2023-07-30T08:23:26;10.95;;;3.10;;
39518;SDS011;25200;53.394;10.414;2023-07-30T08:25:51;13.77;;;3.65;;
39518;SDS011;25200;53.394;10.414;2023-07-30T08:28:17;12.30;;;3.65;;
39518;SDS011;25200;53.394;10.414;2023-07-30T08:30:43;9.55;;;2.88;;
39518;SDS011;25200;53.394;10.414;2023-07-30T08:33:09;10.48;;;3.20;;
39518;SDS011;25200;53.394;10.414;2023-07-30T08:35:35;10.05;;;3.15;;
39518;SDS011;25200;53.394;10.414;2023-07-30T08:38:01;12.10;;;2.97;;
39518;SDS011;25200;53.394;10.414;2023-07-30T08:40:26;12.07;;;2.67;;
39518;SDS011;25200;53.394;10.414;2023-07-30T08:42:52;9.48;;;3.15;;
39518;SDS011;25200;53.394;10.414;2023-07-30T08:45:19;11.23;;;3.25;;
39518;SDS011;25200;53.394;10.414;2023-07-30T08:47:45;10.48;;;2.95;;
39518;SDS011;25200;53.394;10.414;2023-07-30T08:50:11;10.50;;;2.83;;
39518;SDS011;25200;53.394;10.414;2023-07-30T08:52:37;10.13;;;2.90;;
39518;SDS011;25200;53.394;10.414;2023-07-30T08:55:04;11.55;;;2.60;;
39518;SDS011;25200;53.394;10.414;2023-07-30T08:57:30;11.70;;;2.88;;
39518;SDS011;25200;53.394;10.414;2023-07-30T09:00:03;8.25;;;2.72;;
39518;SDS011;25200;53.394;10.414;2023-07-30T09:05:02;10.00;;;2.70;;
39518;SDS011;25200;53.394;10.414;2023-07-30T09:07:29;9.10;;;2.78;;
39518;SDS011;25200;53.394;10.414;2023-07-30T09:09:55;11.32;;;2.42;;
39518;SDS011;25200;53.394;10.414;2023-07-30T09:12:25;11.70;;;3.20;;
39518;SDS011;25200;53.394;10.414;2023-07-30T09:14:58;7.68;;;2.60;;
39518;SDS011;25200;53.394;10.414;2023-07-30T09:17:24;11.80;;;2.65;;
39518;SDS011;25200;53.394;10.414;2023-07-30T09:19:50;9.23;;;2.50;;
39518;SDS011;25200;53.394;10.414;2023-07-30T09:22:35;10.18;;;3.13;;
39518;SDS011;25200;53.394;10.414;2023-07-30T09:25:13;9.15;;;2.90;;
39518;SDS011;25200;53.394;10.414;2023-07-30T09:27:41;7.10;;;2.60;;
39518;SDS011;25200;53.394;10.414;2023-07-30T09:30:07;8.20;;;2.45;;
39518;SDS011;25200;53.394;10.414;2023-07-30T09:32:33;9.65;;;2.80;;
39518;SDS011;25200;53.394;10.414;2023-07-30T09:35:03;9.13;;;2.50;;
39518;SDS011;25200;53.394;10.414;2023-07-30T09:37:33;9.05;;;2.65;;
39518;SDS011;25200;53.394;10.414;2023-07-30T09:40:02;10.77;;;2.60;;
39518;SDS011;25200;53.394;10.414;2023-07-30T09:42:30;9.15;;;2.75;;
39518;SDS011;25200;53.394;10.414;2023-07-30T09:44:58;8.00;;;2.65;;
39518;SDS011;25200;53.394;10.414;2023-07-30T09:47:26;8.77;;;2.45;;
39518;SDS011;25200;53.394;10.414;2023-07-30T09:49:53;6.72;;;2.45;;
39518;SDS011;25200;53.394;10.414;2023-07-30T09:52:19;8.65;;;2.40;;
39518;SDS011;25200;53.394;10.414;2023-07-30T09:54:47;10.02;;;2.38;;
39518;SDS011;25200;53.394;10.414;2023-07-30T09:57:15;8.57;;;2.47;;
39518;SDS011;25200;53.394;10.414;2023-07-30T09:59:40;7.78;;;2.45;;
39518;SDS011;25200;53.394;10.414;2023-07-30T10:02:06;7.95;;;2.40;;
39518;SDS011;25200;53.394;10.414;2023-07-30T10:04:35;10.52;;;2.47;;
39518;SDS011;25200;53.394;10.414;2023-07-30T10:07:08;7.82;;;2.65;;
39518;SDS011;25200;53.394;10.414;2023-07-30T10:09:39;8.20;;;2.33;;
39518;SDS011;25200;53.394;10.414;2023-07-30T10:12:11;12.18;;;2.67;;
39518;SDS011;25200;53.394;10.414;2023-07-30T10:14:38;10.30;;;2.35;;
39518;SDS011;25200;53.394;10.414;2023-07-30T10:17:04;7.40;;;2.15;;
39518;SDS011;25200;53.394;10.414;2023-07-30T10:19:34;8.15;;;2.42;;
39518;SDS011;25200;53.394;10.414;2023-07-30T10:24:38;7.50;;;2.28;;
39518;SDS011;25200;53.394;10.414;2023-07-30T10:27:08;7.53;;;2.25;;
39518;SDS011;25200;53.394;10.414;2023-07-30T10:29:39;6.28;;;2.20;;
39518;SDS011;25200;53.394;10.414;2023-07-30T10:32:06;7.78;;;2.08;;
39518;SDS011;25200;53.394;10.414;2023-07-30T10:34:45;9.55;;;2.38;;
39518;SDS011;25200;53.394;10.414;2023-07-30T10:37:17;7.82;;;2.40;;
39518;SDS011;25200;53.394;10.414;2023-07-30T10:39:43;11.57;;;2.63;;
39518;SDS011;25200;53.394;10.414;2023-07-30T10:42:12;10.75;;;2.83;;
39518;SDS011;25200;53.394;10.414;2023-07-30T10:44:39;9.80;;;2.80;;
39518;SDS011;25200;53.394;10.414;2023-07-30T10:47:09;10.27;;;2.55;;
39518;SDS011;25200;53.394;10.414;2023-07-30T10:49:38;12.18;;;5.82;;
39518;SDS011;25200;53.394;10.414;2023-07-30T10:52:05;9.85;;;2.97;;
39518;SDS011;25200;53.394;10.414;2023-07-30T10:54:34;7.47;;;2.13;;
39518;SDS011;25200;53.394;10.414;2023-07-30T10:57:00;11.63;;;2.75;;
39518;SDS011;25200;53.394;10.414;2023-07-30T10:59:26;7.03;;;2.47;;
39518;SDS011;25200;53.394;10.414;2023-07-30T11:01:57;9.70;;;2.40;;
39518;SDS011;25200;53.394;10.414;2023-07-30T11:04:23;5.90;;;2.33;;
39518;SDS011;25200;53.394;10.414;2023-07-30T11:06:50;10.50;;;2.08;;
39518;SDS011;25200;53.394;10.414;2023-07-30T11:09:20;7.45;;;2.30;;
39518;SDS011;25200;53.394;10.414;2023-07-30T11:11:47;10.35;;;2.60;;
39518;SDS011;25200;53.394;10.414;2023-07-30T11:14:16;7.40;;;2.45;;
39518;SDS011;25200;53.394;10.414;2023-07-30T11:17:00;15.63;;;6.75;;
39518;SDS011;25200;53.394;10.414;2023-07-30T11:19:27;6.45;;;2.67;;
39518;SDS011;25200;53.394;10.414;2023-07-30T11:21:55;7.20;;;2.28;;
39518;SDS011;25200;53.394;10.414;2023-07-30T11:24:36;8.60;;;2.60;;
39518;SDS011;25200;53.394;10.414;2023-07-30T11:27:02;7.35;;;2.13;;
39518;SDS011;25200;53.394;10.414;2023-07-30T11:29:28;7.07;;;2.47;;
39518;SDS011;25200;53.394;10.414;2023-07-30T11:31:58;9.93;;;2.65;;
39518;SDS011;25200;53.394;10.414;2023-07-30T11:34:24;9.43;;;2.60;;
39518;SDS011;25200;53.394;10.414;2023-07-30T11:36:51;7.85;;;2.40;;
39518;SDS011;25200;53.394;10.414;2023-07-30T11:39:18;8.90;;;2.53;;
39518;SDS011;25200;53.394;10.414;2023-07-30T11:41:45;9.45;;;2.72;;
39518;SDS011;25200;53.394;10.414;2023-07-30T11:44:28;7.93;;;2.65;;
39518;SDS011;25200;53.394;10.414;2023-07-30T11:46:59;8.07;;;2.38;;
39518;SDS011;25200;53.394;10.414;2023-07-30T11:49:25;8.45;;;2.60;;
39518;SDS011;25200;53.394;10.414;2023-07-30T11:51:50;9.98;;;2.75;;
39518;SDS011;25200;53.394;10.414;2023-07-30T11:54:20;8.73;;;2.53;;
39518;SDS011;25200;53.394;10.414;2023-07-30T11:56:47;8.80;;;2.33;;
39518;SDS011;25200;53.394;10.414;2023-07-30T11:59:21;6.97;;;2.50;;
39518;SDS011;25200;53.394;10.414;2023-07-30T12:01:48;9.35;;;2.50;;
39518;SDS011;25200;53.394;10.414;2023-07-30T12:04:13;8.18;;;2.50;;
39518;SDS011;25200;53.394;10.414;2023-07-30T12:06:46;8.63;;;2.20;;
39518;SDS011;25200;53.394;10.414;2023-07-30T12:09:17;7.85;;;2.35;;
39518;SDS011;25200;53.394;10.414;2023-07-30T12:11:52;7.13;;;2.28;;
39518;SDS011;25200;53.394;10.414;2023-07-30T12:14:26;5.13;;;1.90;;
39518;SDS011;25200;53.394;10.414;2023-07-30T12:16:58;7.28;;;2.25;;
39518;SDS011;25200;53.394;10.414;2023-07-30T12:19:24;6.43;;;2.60;;
39518;SDS011;25200;53.394;10.414;2023-07-30T12:21:50;8.88;;;2.42;;
39518;SDS011;25200;53.394;10.414;2023-07-30T12:24:15;7.15;;;2.17;;
39518;SDS011;25200;53.394;10.414;2023-07-30T12:26:41;13.02;;;2.40;;
39518;SDS011;25200;53.394;10.414;2023-07-30T12:29:07;7.10;;;2.30;;
39518;SDS011;25200;53.394;10.414;2023-07-30T12:31:32;10.40;;;2.10;;
39518;SDS011;25200;53.394;10.414;2023-07-30T12:33:58;7.10;;;2.35;;
39518;SDS011;25200;53.394;10.414;2023-07-30T12:36:23;7.82;;;2.13;;
39518;SDS011;25200;53.394;10.414;2023-07-30T12:38:49;6.35;;;2.20;;
39518;SDS011;25200;53.394;10.414;2023-07-30T12:41:17;5.90;;;2.13;;
39518;SDS011;25200;53.394;10.414;2023-07-30T12:43:45;9.52;;;2.33;;
39518;SDS011;25200;53.394;10.414;2023-07-30T12:46:11;9.20;;;2.30;;
39518;SDS011;25200;53.394;10.414;2023-07-30T12:48:36;8.10;;;2.30;;
39518;SDS011;25200;53.394;10.414;2023-07-30T12:51:02;8.80;;;2.22;;
39518;SDS011;25200;53.394;10.414;2023-07-30T12:53:28;10.57;;;2.20;;
39518;SDS011;25200;53.394;10.414;2023-07-30T12:55:53;6.13;;;1.90;;
39518;SDS011;25200;53.394;10.414;2023-07-30T12:58:19;7.10;;;2.10;;
39518;SDS011;25200;53.394;10.414;2023-07-30T13:00:45;8.43;;;2.00;;
39518;SDS011;25200;53.394;10.414;2023-07-30T13:03:10;5.80;;;1.85;;
39518;SDS011;25200;53.394;10.414;2023-07-30T13:05:36;4.63;;;1.90;;
39518;SDS011;25200;53.394;10.414;2023-07-30T13:08:02;10.45;;;2.17;;
39518;SDS011;25200;53.394;10.414;2023-07-30T13:10:27;4.93;;;1.90;;
39518;SDS011;25200;53.394;10.414;2023-07-30T13:12:53;7.53;;;2.08;;
39518;SDS011;25200;53.394;10.414;2023-07-30T13:15:19;9.05;;;2.15;;
39518;SDS011;25200;53.394;10.414;2023-07-30T13:17:45;8.27;;;1.98;;
39518;SDS011;25200;53.394;10.414;2023-07-30T13:20:10;5.80;;;1.70;;
39518;SDS011;25200;53.394;10.414;2023-07-30T13:22:36;5.35;;;1.98;;
39518;SDS011;25200;53.394;10.414;2023-07-30T13:25:02;5.70;;;1.70;;
39518;SDS011;25200;53.394;10.414;2023-07-30T13:27:28;7.13;;;2.10;;
39518;SDS011;25200;53.394;10.414;2023-07-30T13:29:53;5.80;;;1.80;;
39518;SDS011;25200;53.394;10.414;2023-07-30T13:32:19;5.57;;;1.80;;
39518;SDS011;25200;53.394;10.414;2023-07-30T13:34:44;7.35;;;2.15;;
39518;SDS011;25200;53.394;10.414;2023-07-30T13:37:10;8.30;;;2.30;;
39518;SDS011;25200;53.394;10.414;2023-07-30T13:39:36;8.13;;;1.90;;
39518;SDS011;25200;53.394;10.414;2023-07-30T13:42:01;6.00;;;2.10;;
39518;SDS011;25200;53.394;10.414;2023-07-30T13:44:27;6.43;;;2.00;;
39518;SDS011;25200;53.394;10.414;2023-07-30T13:46:53;9.35;;;1.60;;
39518;SDS011;25200;53.394;10.414;2023-07-30T13:49:19;4.88;;;1.75;;
39518;SDS011;25200;53.394;10.414;2023-07-30T13:51:44;8.38;;;1.13;;
39518;SDS011;25200;53.394;10.414;2023-07-30T13:54:10;3.42;;;1.30;;
39518;SDS011;25200;53.394;10.414;2023-07-30T13:56:36;5.47;;;1.50;;
39518;SDS011;25200;53.394;10.414;2023-07-30T13:59:03;2.45;;;1.10;;
39518;SDS011;25200;53.394;10.414;2023-07-30T14:01:29;5.00;;;1.00;;
39518;SDS011;25200;53.394;10.414;2023-07-30T14:03:55;3.72;;;1.05;;
39518;SDS011;25200;53.394;10.414;2023-07-30T14:06:20;2.80;;;1.13;;
39518;SDS011;25200;53.394;10.414;2023-07-30T14:08:46;4.55;;;1.33;;
39518;SDS011;25200;53.394;10.414;2023-07-30T14:11:12;2.97;;;1.25;;
39518;SDS011;25200;53.394;10.414;2023-07-30T14:13:38;3.20;;;1.10;;
39518;SDS011;25200;53.394;10.414;2023-07-30T14:16:03;3.10;;;1.15;;
39518;SDS011;25200;53.394;10.414;2023-07-30T14:18:29;3.50;;;1.40;;
39518;SDS011;25200;53.394;10.414;2023-07-30T14:20:55;4.35;;;1.25;;
39518;SDS011;25200;53.394;10.414;2023-07-30T14:23:20;4.43;;;1.50;;
39518;SDS011;25200;53.394;10.414;2023-07-30T14:25:46;3.25;;;1.17;;
39518;SDS011;25200;53.394;10.414;2023-07-30T14:28:12;4.78;;;1.25;;
39518;SDS011;25200;53.394;10.414;2023-07-30T14:30:39;4.75;;;1.00;;
39518;SDS011;25200;53.394;10.414;2023-07-30T14:33:09;3.65;;;1.25;;